Time;durP1;ratioP1;P1;durP2;ratioP2;P2;SDS_P1;SDS_P2;PMS_P1;PMS_P2;Temp;Humidity;BMP_temperature;BMP_pressure;BME280_temperature;BME280_humidity;BME280_pressure;Samples;Min_cycle;Max_cycle;Signal;HPM_P1;HPM_P2
2022/10/31 00:00:12;;;;;;;30.23;15.30;;;14.40;99.90;;;;;;5034914;28;20046;-84
2022/10/31 00:02:38;;;;;;;33.53;16.02;;;13.20;99.90;;;;;;5019007;28;20048;-82
2022/10/31 00:05:04;;;;;;;28.13;14.73;;;14.10;99.90;;;;;;5036419;28;20057;-83
2022/10/31 00:07:30;;;;;;;33.63;16.25;;;13.10;99.90;;;;;;5018573;28;20045;-84
2022/10/31 00:09:55;;;;;;;30.85;15.20;;;13.10;99.90;;;;;;5035551;28;20041;-81
2022/10/31 00:12:21;;;;;;;34.67;17.40;;;13.60;99.90;;;;;;5019479;28;20120;-83
2022/10/31 00:14:47;;;;;;;32.53;17.98;;;13.00;99.90;;;;;;5030771;28;20488;-82
2022/10/31 00:17:13;;;;;;;33.28;18.05;;;13.00;99.90;;;;;;5030229;28;20037;-83
2022/10/31 00:19:38;;;;;;;38.53;18.05;;;13.60;99.90;;;;;;5017666;28;20072;-84
2022/10/31 00:22:04;;;;;;;28.65;16.40;;;12.10;99.90;;;;;;5017614;28;20125;-83
2022/10/31 00:24:30;;;;;;;35.25;18.48;;;13.00;99.90;;;;;;5017691;28;20458;-83
2022/10/31 00:26:55;;;;;;;31.52;17.15;;;14.00;99.90;;;;;;5033070;28;20045;-84
2022/10/31 00:29:21;;;;;;;35.00;17.33;;;13.60;99.90;;;;;;5017262;28;20081;-83
2022/10/31 00:31:46;;;;;;;31.40;17.90;;;13.00;99.90;;;;;;5017235;28;20408;-83
2022/10/31 00:34:12;;;;;;;36.08;18.13;;;13.80;99.90;;;;;;5034301;28;20491;-84
2022/10/31 00:36:40;;;;;;;28.65;16.95;;;13.90;99.90;;;;;;5018693;28;20508;-83
2022/10/31 00:39:06;;;;;;;35.83;18.50;;;13.80;99.90;;;;;;5034178;28;20045;-84
2022/10/31 00:41:32;;;;;;;31.17;17.35;;;13.10;99.90;;;;;;5028120;28;20053;-85
2022/10/31 00:43:58;;;;;;;32.72;17.70;;;12.80;99.90;;;;;;5036471;28;20497;-83
2022/10/31 00:46:23;;;;;;;35.60;19.17;;;13.10;99.90;;;;;;5039375;28;20124;-83
2022/10/31 00:48:49;;;;;;;34.95;19.30;;;13.90;99.90;;;;;;5028485;28;20076;-83
2022/10/31 00:51:14;;;;;;;36.55;19.48;;;12.50;99.90;;;;;;5041392;28;20042;-82
2022/10/31 00:53:40;;;;;;;33.60;19.27;;;13.20;99.90;;;;;;5039682;28;20049;-81
2022/10/31 00:56:06;;;;;;;36.70;19.10;;;13.50;99.90;;;;;;5038602;28;20042;-82
2022/10/31 00:58:32;;;;;;;36.95;18.92;;;12.70;99.90;;;;;;5038876;28;20404;-83
2022/10/31 01:00:57;;;;;;;33.60;18.50;;;13.10;99.90;;;;;;5037916;28;20033;-82
2022/10/31 01:03:29;;;;;;;32.22;18.35;;;12.60;99.90;;;;;;5037540;28;20522;-81
2022/10/31 01:06:15;;;;;;;39.83;18.73;;;12.60;99.90;;;;;;5021445;28;20054;-83
2022/10/31 01:08:42;;;;;;;32.72;18.73;;;12.60;99.90;;;;;;5036600;28;20064;-83
2022/10/31 01:11:12;;;;;;;33.67;18.25;;;12.60;99.90;;;;;;5035810;28;20045;-84
2022/10/31 01:13:37;;;;;;;34.40;16.98;;;12.60;99.90;;;;;;5025701;28;20492;-84
2022/10/31 01:16:05;;;;;;;32.33;18.13;;;12.50;99.90;;;;;;5031284;28;20091;-82
2022/10/31 01:18:31;;;;;;;38.65;18.42;;;12.50;99.90;;;;;;5016497;28;20500;-81
2022/10/31 01:21:06;;;;;;;28.85;18.48;;;12.50;99.90;;;;;;5032535;28;20053;-81
2022/10/31 01:23:33;;;;;;;29.13;18.17;;;12.50;99.90;;;;;;5018805;28;20042;-83
2022/10/31 01:26:05;;;;;;;36.33;17.95;;;12.50;99.90;;;;;;5030050;28;20050;-85
2022/10/31 01:28:31;;;;;;;37.72;18.08;;;12.50;99.90;;;;;;5039007;28;20063;-83
2022/10/31 01:31:06;;;;;;;31.48;17.75;;;12.50;99.90;;;;;;5039040;28;20049;-83
2022/10/31 01:33:31;;;;;;;30.90;17.42;;;12.50;99.90;;;;;;5037617;28;20402;-81
2022/10/31 01:35:57;;;;;;;28.65;16.92;;;13.40;99.90;;;;;;5035662;28;20045;-81
2022/10/31 01:38:23;;;;;;;30.48;17.10;;;13.50;99.90;;;;;;5035572;28;20133;-82
2022/10/31 01:40:49;;;;;;;29.30;15.55;;;12.50;99.90;;;;;;5036034;28;20048;-84
2022/10/31 01:43:15;;;;;;;33.03;15.77;;;12.90;99.90;;;;;;5036139;28;20081;-83
2022/10/31 01:45:46;;;;;;;34.50;16.63;;;12.40;99.90;;;;;;5030392;28;20491;-81
2022/10/31 01:48:15;;;;;;;29.15;15.13;;;12.40;99.90;;;;;;5006885;28;20046;-83
2022/10/31 01:50:46;;;;;;;35.58;16.20;;;12.40;99.90;;;;;;5034605;28;20086;-85
2022/10/31 01:53:12;;;;;;;31.55;16.88;;;12.50;99.90;;;;;;5007875;28;20053;-83
2022/10/31 01:55:41;;;;;;;32.30;15.30;;;12.40;99.90;;;;;;5020502;28;20049;-83
2022/10/31 01:58:18;;;;;;;29.45;15.60;;;12.40;99.90;;;;;;5036139;28;20529;-84
2022/10/31 02:00:49;;;;;;;30.25;15.82;;;12.40;99.90;;;;;;5021063;28;20083;-85
2022/10/31 02:03:16;;;;;;;36.10;16.02;;;12.40;99.90;;;;;;5043169;28;20050;-84
2022/10/31 02:05:43;;;;;;;28.17;15.68;;;12.40;99.90;;;;;;5032665;28;20057;-84
2022/10/31 02:08:27;;;;;;;31.35;16.80;;;12.40;99.90;;;;;;5045552;28;20461;-82
2022/10/31 02:10:54;;;;;;;27.85;15.65;;;12.40;99.90;;;;;;5026804;28;20127;-83
2022/10/31 02:13:21;;;;;;;30.23;15.15;;;12.40;99.90;;;;;;5042039;28;20052;-82
2022/10/31 02:15:51;;;;;;;32.85;16.20;;;12.30;99.90;;;;;;5030425;28;20048;-84
2022/10/31 02:18:18;;;;;;;28.60;16.02;;;12.30;99.90;;;;;;5027925;28;20112;-84
2022/10/31 02:21:02;;;;;;;30.80;15.32;;;12.30;99.90;;;;;;5030484;28;20077;-82
2022/10/31 02:23:44;;;;;;;30.67;15.90;;;12.30;99.90;;;;;;5016952;28;20451;-84
2022/10/31 02:26:31;;;;;;;30.98;15.07;;;12.30;99.90;;;;;;5018225;28;20046;-82
2022/10/31 02:29:35;;;;;;;33.72;16.40;;;12.30;99.90;;;;;;5029610;28;20041;-83
2022/10/31 02:32:33;;;;;;;32.08;16.23;;;12.20;99.90;;;;;;5040487;28;20046;-83
2022/10/31 02:35:02;;;;;;;31.63;16.98;;;12.20;99.90;;;;;;5036562;28;20096;-84
2022/10/31 02:37:56;;;;;;;32.28;16.88;;;12.20;99.90;;;;;;5018651;28;20128;-84
2022/10/31 02:40:46;;;;;;;32.58;17.13;;;12.20;99.90;;;;;;5032272;28;20384;-83
2022/10/31 02:43:19;;;;;;;32.38;17.15;;;12.20;99.90;;;;;;5046906;28;20049;-80
2022/10/31 02:45:57;;;;;;;28.65;16.48;;;12.10;99.90;;;;;;5040596;28;20037;-82
2022/10/31 02:48:30;;;;;;;30.67;16.75;;;12.10;99.90;;;;;;5033583;28;20041;-83
2022/10/31 02:51:00;;;;;;;26.45;16.38;;;12.10;99.90;;;;;;5035025;28;20369;-80
2022/10/31 02:53:25;;;;;;;35.47;16.85;;;12.10;99.90;;;;;;5035164;28;20044;-84
2022/10/31 02:55:58;;;;;;;27.73;16.95;;;12.10;99.90;;;;;;5042252;28;20487;-81
2022/10/31 02:58:28;;;;;;;27.65;16.08;;;12.00;99.90;;;;;;5035245;28;20057;-82
2022/10/31 03:00:59;;;;;;;33.33;16.50;;;12.00;99.90;;;;;;5024584;28;20050;-83
2022/10/31 03:03:48;;;;;;;34.40;16.83;;;12.00;99.90;;;;;;5031001;28;20112;-85
2022/10/31 03:06:46;;;;;;;35.13;17.30;;;12.00;99.90;;;;;;5043589;28;20045;-83
2022/10/31 03:09:25;;;;;;;36.28;18.48;;;12.40;99.90;;;;;;5004358;28;20575;-84
2022/10/31 03:11:58;;;;;;;30.30;17.45;;;12.00;99.90;;;;;;5051097;28;20116;-85
2022/10/31 03:14:39;;;;;;;28.33;17.35;;;12.00;99.90;;;;;;5050900;28;20052;-83
2022/10/31 03:17:09;;;;;;;26.52;16.35;;;12.00;99.90;;;;;;5038274;28;20044;-85
2022/10/31 03:19:42;;;;;;;30.70;18.40;;;12.20;99.90;;;;;;5038847;28;20037;-84
2022/10/31 03:22:14;;;;;;;32.58;16.92;;;12.00;99.90;;;;;;5040809;28;20061;-84
2022/10/31 03:24:41;;;;;;;30.80;17.30;;;12.50;99.90;;;;;;5041247;28;20045;-82
2022/10/31 03:27:09;;;;;;;28.40;16.42;;;11.80;99.90;;;;;;5041203;28;20037;-83
2022/10/31 03:29:37;;;;;;;35.53;19.20;;;11.80;99.90;;;;;;5041089;28;20097;-82
2022/10/31 03:32:08;;;;;;;33.63;16.98;;;11.90;99.90;;;;;;5042385;28;20064;-81
2022/10/31 03:34:37;;;;;;;28.40;16.77;;;12.30;99.90;;;;;;5036346;28;20049;-82
2022/10/31 03:37:06;;;;;;;35.67;17.70;;;11.80;99.90;;;;;;5039876;28;20387;-83
2022/10/31 03:39:34;;;;;;;33.65;18.20;;;12.00;99.90;;;;;;5035412;28;20050;-85
2022/10/31 03:42:14;;;;;;;28.63;16.63;;;11.80;99.90;;;;;;5023671;28;20418;-84
2022/10/31 03:44:45;;;;;;;31.50;16.95;;;11.60;99.90;;;;;;5017987;28;20046;-82
2022/10/31 03:47:11;;;;;;;27.95;16.00;;;11.60;99.90;;;;;;5039363;28;20504;-85
2022/10/31 03:49:38;;;;;;;30.98;17.27;;;11.60;99.90;;;;;;5040834;28;20083;-85
2022/10/31 03:52:15;;;;;;;25.98;15.82;;;11.60;99.90;;;;;;5036012;28;20041;-83
2022/10/31 03:54:48;;;;;;;29.00;17.05;;;11.50;99.90;;;;;;5029697;28;20048;-83
2022/10/31 03:57:16;;;;;;;31.38;17.42;;;11.50;99.90;;;;;;5034053;28;20068;-83
2022/10/31 03:59:51;;;;;;;26.02;16.73;;;11.50;99.90;;;;;;5037842;28;20041;-84
2022/10/31 04:02:21;;;;;;;26.85;16.42;;;11.50;99.90;;;;;;5040952;28;20081;-84
2022/10/31 04:04:48;;;;;;;29.85;17.05;;;11.70;99.90;;;;;;5024003;28;20058;-81
2022/10/31 04:07:15;;;;;;;32.25;16.80;;;11.40;99.90;;;;;;5030262;28;20038;-84
2022/10/31 04:09:44;;;;;;;31.27;17.20;;;11.40;99.90;;;;;;5019784;28;20476;-84
2022/10/31 04:12:14;;;;;;;25.83;16.65;;;11.40;99.90;;;;;;5039994;28;20041;-83
2022/10/31 04:14:44;;;;;;;27.45;15.82;;;11.40;99.90;;;;;;5032884;28;20069;-84
2022/10/31 04:17:14;;;;;;;30.90;16.75;;;11.50;99.90;;;;;;5019063;28;20076;-83
2022/10/31 04:19:40;;;;;;;28.13;16.15;;;11.40;99.90;;;;;;5030307;28;20486;-83
2022/10/31 04:22:06;;;;;;;26.15;15.52;;;11.40;99.90;;;;;;5037823;28;20037;-84
2022/10/31 04:24:31;;;;;;;25.10;14.13;;;11.30;99.90;;;;;;5026787;28;20041;-83
2022/10/31 04:26:57;;;;;;;26.70;15.30;;;11.30;99.90;;;;;;5041009;28;20053;-85
2022/10/31 04:29:23;;;;;;;24.05;15.40;;;11.30;99.90;;;;;;5035411;28;20038;-83
2022/10/31 04:31:48;;;;;;;29.55;15.70;;;11.30;99.90;;;;;;5037360;28;20464;-83
2022/10/31 04:34:14;;;;;;;28.02;15.85;;;11.30;99.90;;;;;;5036759;28;20069;-84
2022/10/31 04:36:40;;;;;;;25.85;16.13;;;11.30;99.90;;;;;;5004276;28;20387;-81
2022/10/31 04:39:05;;;;;;;26.30;15.88;;;11.30;99.90;;;;;;5037360;28;20045;-83
2022/10/31 04:41:31;;;;;;;28.77;16.73;;;11.40;99.90;;;;;;5025707;28;20053;-83
2022/10/31 04:43:56;;;;;;;31.83;16.42;;;11.20;99.90;;;;;;5039570;28;20041;-83
2022/10/31 04:46:22;;;;;;;29.63;15.88;;;11.20;99.90;;;;;;5032646;28;20073;-84
2022/10/31 04:48:48;;;;;;;28.80;17.00;;;11.20;99.90;;;;;;5042931;28;20184;-84
2022/10/31 04:51:14;;;;;;;30.88;16.63;;;11.20;99.90;;;;;;5030554;28;20045;-82
2022/10/31 04:53:39;;;;;;;30.65;16.90;;;11.20;99.90;;;;;;5042896;28;20041;-84
2022/10/31 04:56:05;;;;;;;28.05;15.55;;;11.20;99.90;;;;;;5043871;28;20072;-84
2022/10/31 04:58:31;;;;;;;28.30;16.45;;;11.20;99.90;;;;;;5052609;28;20105;-83
2022/10/31 05:00:57;;;;;;;27.65;16.30;;;11.20;99.90;;;;;;5029371;28;20049;-83
2022/10/31 05:03:23;;;;;;;31.30;17.00;;;11.10;99.90;;;;;;5043403;28;20053;-84
2022/10/31 05:05:49;;;;;;;34.40;17.90;;;11.10;99.90;;;;;;5027686;28;20050;-84
2022/10/31 05:08:14;;;;;;;29.77;17.08;;;11.10;99.90;;;;;;5023397;28;20065;-83
2022/10/31 05:10:40;;;;;;;35.28;17.58;;;11.10;99.90;;;;;;5023690;28;20042;-83
2022/10/31 05:13:06;;;;;;;32.72;18.55;;;11.00;99.90;;;;;;5024121;28;20042;-85
2022/10/31 05:15:32;;;;;;;30.65;17.73;;;11.00;99.90;;;;;;5030429;28;20479;-84
2022/10/31 05:17:58;;;;;;;37.13;18.63;;;11.00;99.90;;;;;;5030180;28;20038;-83
2022/10/31 05:20:27;;;;;;;39.53;18.70;;;11.00;99.90;;;;;;5040903;28;20052;-83
2022/10/31 05:22:54;;;;;;;35.15;17.38;;;11.00;99.90;;;;;;5044424;28;20411;-82
2022/10/31 05:25:22;;;;;;;30.33;17.53;;;11.20;99.90;;;;;;5031692;28;20101;-83
2022/10/31 05:27:49;;;;;;;31.33;17.45;;;10.90;99.90;;;;;;5033776;28;20116;-83
2022/10/31 05:30:21;;;;;;;30.25;17.48;;;10.90;99.90;;;;;;5044178;28;20069;-85
2022/10/31 05:32:49;;;;;;;31.83;18.23;;;10.90;99.90;;;;;;5027220;28;20037;-83
2022/10/31 05:35:23;;;;;;;35.22;18.10;;;11.60;99.90;;;;;;5036246;28;20054;-84
2022/10/31 05:37:49;;;;;;;29.77;18.00;;;10.90;99.90;;;;;;5037156;28;20476;-84
2022/10/31 05:40:17;;;;;;;33.55;19.58;;;10.90;99.90;;;;;;5034548;28;20045;-84
2022/10/31 05:42:43;;;;;;;30.98;18.02;;;11.30;99.90;;;;;;5037033;28;20500;-82
2022/10/31 05:45:11;;;;;;;27.27;17.75;;;11.60;99.90;;;;;;5026984;28;20038;-83
2022/10/31 05:47:36;;;;;;;28.88;17.88;;;10.80;99.90;;;;;;5037461;28;20361;-82
2022/10/31 05:50:03;;;;;;;35.03;18.65;;;10.80;99.90;;;;;;5018221;28;20041;-83
2022/10/31 05:52:29;;;;;;;34.42;18.88;;;10.80;99.90;;;;;;5009826;28;20051;-82
2022/10/31 05:54:54;;;;;;;35.08;19.38;;;11.00;99.90;;;;;;5035715;28;20045;-83
2022/10/31 05:57:20;;;;;;;30.55;19.23;;;10.70;99.90;;;;;;5037051;28;20041;-83
2022/10/31 05:59:45;;;;;;;32.80;18.77;;;10.70;99.90;;;;;;5038274;28;20041;-83
2022/10/31 06:02:11;;;;;;;33.70;18.70;;;11.00;99.90;;;;;;5035936;28;20085;-83
2022/10/31 06:04:37;;;;;;;33.50;18.67;;;10.70;99.90;;;;;;5010211;28;20065;-82
2022/10/31 06:07:02;;;;;;;33.75;18.65;;;11.50;99.90;;;;;;5032402;28;20045;-83
2022/10/31 06:09:28;;;;;;;35.35;18.75;;;10.70;99.90;;;;;;5020910;28;20037;-82
2022/10/31 06:11:54;;;;;;;39.88;19.88;;;10.60;99.90;;;;;;5043988;28;20094;-82
2022/10/31 06:14:20;;;;;;;32.72;19.38;;;10.70;99.90;;;;;;5036419;28;20053;-81
2022/10/31 06:16:45;;;;;;;31.73;18.35;;;10.60;99.90;;;;;;5020129;28;20048;-81
2022/10/31 06:19:11;;;;;;;32.75;19.75;;;10.60;99.90;;;;;;5034621;28;20042;-82
2022/10/31 06:21:37;;;;;;;33.17;19.33;;;11.80;99.90;;;;;;5033866;28;20052;-82
2022/10/31 06:24:03;;;;;;;35.10;20.48;;;10.60;99.90;;;;;;5036256;28;20480;-81
2022/10/31 06:26:28;;;;;;;35.58;20.67;;;10.60;99.90;;;;;;5016821;28;20050;-82
2022/10/31 06:28:54;;;;;;;29.48;19.52;;;10.60;99.90;;;;;;5025562;28;20523;-81
2022/10/31 06:31:20;;;;;;;36.60;20.80;;;10.90;99.90;;;;;;5018459;28;20131;-81
2022/10/31 06:33:45;;;;;;;36.25;19.55;;;10.60;99.90;;;;;;5025925;28;20042;-82
2022/10/31 06:36:11;;;;;;;36.13;19.67;;;10.60;99.90;;;;;;5019069;28;20053;-82
2022/10/31 06:38:37;;;;;;;38.92;19.38;;;10.80;99.90;;;;;;5019236;28;20034;-83
2022/10/31 06:41:04;;;;;;;35.40;20.40;;;10.60;99.90;;;;;;5019685;28;20057;-83
2022/10/31 06:43:31;;;;;;;30.80;19.83;;;10.70;99.90;;;;;;5050856;28;20059;-80
2022/10/31 06:45:57;;;;;;;37.13;19.63;;;11.70;99.90;;;;;;5038502;28;20080;-82
2022/10/31 06:48:24;;;;;;;30.73;18.58;;;10.60;99.90;;;;;;5033344;28;20072;-81
2022/10/31 06:50:49;;;;;;;32.55;19.42;;;10.60;99.90;;;;;;5025132;28;20048;-83
2022/10/31 06:53:15;;;;;;;31.63;18.38;;;10.60;99.90;;;;;;5029690;28;20033;-79
2022/10/31 06:55:41;;;;;;;34.38;19.20;;;10.60;99.90;;;;;;5046698;28;20060;-79
2022/10/31 06:58:10;;;;;;;33.78;19.73;;;10.60;99.90;;;;;;5045160;28;20034;-80
2022/10/31 07:00:36;;;;;;;30.65;19.13;;;10.60;99.90;;;;;;5032508;28;20144;-82
2022/10/31 07:03:04;;;;;;;31.67;19.58;;;10.60;99.90;;;;;;5021152;28;20117;-85
2022/10/31 07:05:30;;;;;;;;;;;10.60;99.90;;;;;;5052760;28;20057;-84
2022/10/31 07:07:58;;;;;;;28.92;19.63;;;10.70;99.90;;;;;;5052494;28;19928;-84
2022/10/31 07:10:25;;;;;;;32.28;19.88;;;10.70;99.90;;;;;;5049791;28;20046;-83
2022/10/31 07:12:59;;;;;;;32.60;19.15;;;10.70;99.90;;;;;;5053861;28;20061;-84
2022/10/31 07:15:26;;;;;;;34.88;20.08;;;10.70;99.90;;;;;;5050732;28;20049;-84
2022/10/31 07:17:52;;;;;;;31.48;19.02;;;10.70;99.90;;;;;;5053598;28;20109;-84
2022/10/31 07:20:18;;;;;;;31.45;18.15;;;10.70;99.90;;;;;;5055185;28;20050;-84
2022/10/31 07:22:44;;;;;;;29.35;18.63;;;10.70;99.90;;;;;;5053721;28;20484;-84
2022/10/31 07:25:10;;;;;;;33.97;20.23;;;10.80;99.90;;;;;;5046724;28;20034;-84
2022/10/31 07:27:36;;;;;;;31.90;20.75;;;10.80;99.90;;;;;;5039231;28;20053;-84
2022/10/31 07:30:02;;;;;;;33.95;19.45;;;10.80;99.90;;;;;;5055806;28;20037;-85
2022/10/31 07:32:40;;;;;;;41.42;21.42;;;10.90;99.90;;;;;;5039656;28;20041;-83
2022/10/31 07:35:14;;;;;;;34.75;20.55;;;10.90;99.90;;;;;;5046115;28;20042;-84
2022/10/31 07:37:40;;;;;;;33.38;20.15;;;11.10;99.90;;;;;;5050948;28;20049;-83
2022/10/31 07:40:07;;;;;;;31.00;20.48;;;11.10;99.90;;;;;;5040691;28;20102;-83
2022/10/31 07:42:37;;;;;;;33.25;21.23;;;11.10;99.90;;;;;;5043460;28;20045;-84
2022/10/31 07:45:04;;;;;;;38.20;21.13;;;11.70;99.90;;;;;;5052988;28;20101;-84
2022/10/31 07:47:37;;;;;;;45.58;21.58;;;11.30;99.90;;;;;;5053072;28;20053;-81
2022/10/31 07:50:03;;;;;;;39.47;22.02;;;11.30;99.90;;;;;;5056924;28;20025;-84
2022/10/31 07:52:28;;;;;;;32.95;20.80;;;11.40;99.90;;;;;;5026356;28;20068;-81
2022/10/31 07:54:54;;;;;;;33.10;21.27;;;11.50;99.90;;;;;;5038644;28;20049;-82
2022/10/31 07:57:20;;;;;;;36.55;20.67;;;11.50;99.90;;;;;;5047948;28;20054;-84
2022/10/31 07:59:45;;;;;;;34.22;21.20;;;11.50;99.90;;;;;;5043940;28;20029;-83
2022/10/31 08:02:11;;;;;;;35.13;19.67;;;11.60;99.90;;;;;;5048462;28;20041;-84
2022/10/31 08:04:36;;;;;;;36.25;20.33;;;11.70;99.90;;;;;;5039815;28;20054;-85
2022/10/31 08:07:02;;;;;;;31.05;19.13;;;11.70;99.90;;;;;;5043980;28;20054;-84
2022/10/31 08:09:28;;;;;;;26.23;18.60;;;11.80;99.90;;;;;;5042336;28;20053;-84
2022/10/31 08:11:53;;;;;;;33.15;19.33;;;12.30;99.90;;;;;;5035086;28;20357;-84
2022/10/31 08:14:19;;;;;;;32.40;19.63;;;11.90;99.90;;;;;;5041749;28;20373;-85
2022/10/31 08:16:45;;;;;;;31.02;18.13;;;11.90;99.90;;;;;;5041399;28;20042;-85
2022/10/31 08:19:11;;;;;;;23.90;16.23;;;12.00;99.90;;;;;;5038512;28;20123;-84
2022/10/31 08:21:36;;;;;;;31.10;17.80;;;12.00;99.90;;;;;;5015204;28;20081;-86
2022/10/31 08:24:02;;;;;;;27.02;17.17;;;12.00;99.90;;;;;;5026745;28;20042;-84
2022/10/31 08:26:34;;;;;;;28.60;16.25;;;12.10;99.90;;;;;;5039235;28;20041;-84
2022/10/31 08:29:00;;;;;;;25.38;15.70;;;12.10;99.90;;;;;;5044102;28;20045;-84
2022/10/31 08:31:27;;;;;;;28.77;16.85;;;12.10;99.90;;;;;;5046690;28;20041;-85
2022/10/31 08:33:53;;;;;;;25.67;15.48;;;12.10;99.90;;;;;;5053639;28;20021;-84
2022/10/31 08:36:22;;;;;;;24.52;15.90;;;12.10;99.90;;;;;;5048068;28;20133;-84
2022/10/31 08:38:48;;;;;;;26.30;16.42;;;12.20;99.90;;;;;;5042559;28;20420;-85
2022/10/31 08:41:14;;;;;;;25.98;15.63;;;12.20;99.90;;;;;;5039316;28;20060;-85
2022/10/31 08:43:40;;;;;;;23.08;15.63;;;12.40;99.90;;;;;;5026038;28;20464;-86
2022/10/31 08:46:05;;;;;;;20.77;14.32;;;12.40;99.90;;;;;;5028821;28;20521;-85
2022/10/31 08:48:31;;;;;;;21.38;15.63;;;12.90;99.90;;;;;;5017509;28;20049;-85
2022/10/31 08:50:58;;;;;;;31.20;15.25;;;12.60;99.90;;;;;;5015981;28;20029;-86
2022/10/31 08:53:25;;;;;;;22.67;15.35;;;12.70;99.90;;;;;;5033318;28;20049;-85
2022/10/31 08:55:53;;;;;;;23.38;13.95;;;12.80;99.90;;;;;;5029952;28;20049;-84
2022/10/31 08:58:19;;;;;;;22.33;13.38;;;12.90;99.90;;;;;;5030937;28;20041;-84
2022/10/31 09:00:47;;;;;;;18.02;13.45;;;13.30;99.90;;;;;;5035416;28;20068;-82
2022/10/31 09:03:22;;;;;;;23.30;13.45;;;13.50;99.90;;;;;;5031317;28;20042;-84
2022/10/31 09:05:48;;;;;;;20.50;13.48;;;13.30;99.90;;;;;;5029396;28;20104;-83
2022/10/31 09:08:14;;;;;;;17.73;12.48;;;13.50;99.90;;;;;;5032101;28;21689;-83
2022/10/31 09:10:40;;;;;;;19.88;13.35;;;13.80;99.90;;;;;;5035897;28;20440;-83
2022/10/31 09:13:10;;;;;;;18.67;12.20;;;14.00;99.90;;;;;;5031353;28;20136;-84
2022/10/31 09:15:38;;;;;;;23.75;11.98;;;14.10;99.90;;;;;;5033160;28;20121;-84
2022/10/31 09:18:05;;;;;;;17.30;10.65;;;14.30;99.90;;;;;;5045762;28;20041;-84
2022/10/31 09:20:32;;;;;;;16.10;11.88;;;14.60;99.90;;;;;;5047609;28;20069;-82
2022/10/31 09:22:59;;;;;;;17.70;11.20;;;14.50;99.90;;;;;;5029498;28;20472;-84
2022/10/31 09:25:25;;;;;;;17.75;11.65;;;14.60;99.90;;;;;;5045317;28;20036;-82
2022/10/31 09:27:54;;;;;;;18.17;11.55;;;14.80;99.90;;;;;;5042092;28;20038;-84
2022/10/31 09:30:20;;;;;;;16.55;11.38;;;14.90;99.90;;;;;;5017394;28;20084;-84
2022/10/31 09:32:46;;;;;;;17.02;11.90;;;15.00;99.90;;;;;;5037084;28;20042;-85
2022/10/31 09:35:11;;;;;;;27.17;13.15;;;15.20;99.90;;;;;;5034330;28;20033;-84
2022/10/31 09:37:37;;;;;;;23.45;12.50;;;15.40;99.90;;;;;;5036612;28;20046;-85
2022/10/31 09:40:03;;;;;;;17.05;11.20;;;15.60;99.90;;;;;;5031976;28;20593;-83
2022/10/31 09:42:51;;;;;;;13.98;11.00;;;15.90;99.90;;;;;;5030701;28;20045;-85
2022/10/31 09:45:26;;;;;;;14.60;11.38;;;16.10;99.90;;;;;;5019273;28;20112;-86
2022/10/31 09:48:21;;;;;;;17.27;11.45;;;16.30;99.90;;;;;;5021281;28;20120;-84
2022/10/31 09:51:00;;;;;;;17.35;10.80;;;16.40;99.90;;;;;;5032013;28;20042;-86
2022/10/31 09:53:44;;;;;;;11.93;9.77;;;16.60;99.90;;;;;;5029470;28;20087;-83
2022/10/31 09:56:13;;;;;;;18.75;10.43;;;16.80;99.90;;;;;;5034547;28;20077;-81
2022/10/31 09:58:45;;;;;;;12.90;9.50;;;17.00;99.90;;;;;;5026511;28;20048;-80
2022/10/31 10:01:30;;;;;;;16.15;10.35;;;17.40;99.90;;;;;;5029474;28;20370;-81
2022/10/31 10:04:05;;;;;;;12.73;9.02;;;17.30;99.90;;;;;;5031253;28;20041;-82
2022/10/31 10:06:35;;;;;;;11.65;9.00;;;17.60;99.90;;;;;;5033570;28;20175;-82
2022/10/31 10:09:02;;;;;;;11.18;8.25;;;17.80;99.90;;;;;;5031140;28;20044;-82
2022/10/31 10:11:40;;;;;;;15.82;9.15;;;17.70;99.90;;;;;;5022494;28;20050;-82
2022/10/31 10:14:06;;;;;;;;;;;17.80;99.90;;;;;;5020255;28;20042;-81
2022/10/31 10:16:38;;;;;;;11.77;8.38;;;17.80;99.90;;;;;;5030457;28;19927;-81
2022/10/31 10:19:06;;;;;;;12.02;8.50;;;18.00;99.90;;;;;;5029850;28;20436;-81
2022/10/31 10:22:03;;;;;;;11.38;7.93;;;18.20;99.90;;;;;;5016209;28;20053;-82
2022/10/31 10:25:09;;;;;;;9.35;7.65;;;18.40;99.90;;;;;;5023533;28;20095;-82
2022/10/31 10:27:45;;;;;;;15.48;8.18;;;18.60;99.90;;;;;;5003453;28;20181;-82
2022/10/31 10:30:21;;;;;;;13.88;7.03;;;18.80;99.90;;;;;;5033355;28;20041;-80
2022/10/31 10:32:59;;;;;;;13.68;6.93;;;19.00;99.90;;;;;;5029604;28;20176;-83
2022/10/31 10:35:36;;;;;;;11.25;7.15;;;19.00;99.90;;;;;;5029638;28;20037;-83
2022/10/31 10:38:10;;;;;;;13.48;6.97;;;19.00;99.90;;;;;;5022157;28;20046;-82
2022/10/31 10:40:37;;;;;;;10.82;7.80;;;18.60;99.90;;;;;;5042550;28;20376;-80
2022/10/31 10:43:34;;;;;;;13.10;7.95;;;18.20;99.90;;;;;;5030508;28;20132;-80
2022/10/31 10:49:31;;;;;;;15.30;8.45;;;17.30;99.90;;;;;;5032618;28;20411;-83
2022/10/31 10:52:07;;;;;;;;;;;16.90;99.90;;;;;;5038793;28;20041;-83
2022/10/31 10:55:10;;;;;;;10.95;8.30;;;16.70;99.90;;;;;;5025419;28;19928;-80
2022/10/31 10:58:02;;;;;;;14.88;8.52;;;16.50;99.90;;;;;;5033084;28;20100;-83
2022/10/31 11:00:42;;;;;;;14.70;9.15;;;16.30;99.90;;;;;;5027996;28;20049;-82
2022/10/31 11:03:09;;;;;;;12.77;8.82;;;16.10;99.90;;;;;;5021318;28;20068;-83
2022/10/31 11:05:59;;;;;;;13.40;9.38;;;16.10;99.90;;;;;;5030862;28;20049;-84
2022/10/31 11:08:33;;;;;;;13.90;9.43;;;15.90;99.90;;;;;;5035694;28;20049;-82
2022/10/31 11:11:16;;;;;;;16.58;10.43;;;15.80;99.90;;;;;;5037915;28;20037;-81
2022/10/31 11:13:47;;;;;;;14.73;9.55;;;15.80;99.90;;;;;;5030990;28;20047;-80
2022/10/31 11:16:30;;;;;;;14.30;9.48;;;15.80;99.90;;;;;;5033051;28;20045;-81
2022/10/31 11:19:17;;;;;;;15.18;9.57;;;15.80;99.90;;;;;;5028722;28;20427;-82
2022/10/31 11:21:46;;;;;;;13.05;9.30;;;16.20;99.90;;;;;;5024689;28;20056;-83
2022/10/31 11:24:21;;;;;;;17.40;9.82;;;15.70;99.90;;;;;;5035383;28;20503;-83
2022/10/31 11:26:48;;;;;;;13.85;8.82;;;15.70;99.90;;;;;;5035189;28;20045;-83
2022/10/31 11:29:21;;;;;;;13.85;9.02;;;16.70;99.90;;;;;;5027248;28;20477;-82
2022/10/31 11:31:50;;;;;;;13.60;9.43;;;15.60;99.90;;;;;;5032287;28;20077;-82
2022/10/31 11:34:27;;;;;;;14.88;9.05;;;15.50;99.90;;;;;;5029438;28;20088;-82
2022/10/31 11:36:53;;;;;;;16.38;9.05;;;15.50;99.90;;;;;;5031863;28;20053;-81
2022/10/31 11:39:22;;;;;;;14.05;8.38;;;14.80;99.90;;;;;;5031284;28;20034;-81
2022/10/31 11:41:50;;;;;;;11.63;8.07;;;15.40;99.90;;;;;;5010075;28;20053;-82
2022/10/31 11:44:30;;;;;;;12.15;7.78;;;15.00;99.90;;;;;;5035036;28;20125;-82
2022/10/31 11:46:59;;;;;;;13.43;7.90;;;14.70;99.90;;;;;;5038727;28;20045;-84
2022/10/31 11:49:49;;;;;;;11.32;6.70;;;15.30;99.90;;;;;;5007188;28;20046;-83
2022/10/31 11:52:23;;;;;;;;;;;15.30;99.90;;;;;;5026685;28;20045;-84
2022/10/31 11:55:07;;;;;;;13.82;6.85;;;15.30;99.90;;;;;;5013650;28;19921;-85
2022/10/31 11:57:46;;;;;;;9.70;6.43;;;15.40;99.90;;;;;;5020441;28;20483;-86
2022/10/31 12:00:26;;;;;;;11.43;6.55;;;15.40;99.90;;;;;;5032069;28;20051;-83
2022/10/31 12:03:13;;;;;;;11.43;6.57;;;15.40;99.90;;;;;;5029612;28;20071;-83
2022/10/31 12:05:40;;;;;;;12.80;6.85;;;15.40;99.90;;;;;;5031729;28;20526;-83
2022/10/31 12:08:11;;;;;;;13.60;7.35;;;15.40;99.90;;;;;;5022626;28;20117;-81
2022/10/31 12:11:02;;;;;;;14.23;7.93;;;15.30;99.90;;;;;;5032839;28;20029;-83
2022/10/31 12:13:56;;;;;;;15.15;8.48;;;15.60;99.90;;;;;;4996388;28;20061;-84
2022/10/31 12:16:44;;;;;;;15.70;8.10;;;15.60;99.90;;;;;;5014143;28;20057;-83
2022/10/31 12:19:17;;;;;;;14.95;8.10;;;15.50;99.90;;;;;;5029284;28;20044;-81
2022/10/31 12:22:08;;;;;;;19.90;7.95;;;15.60;99.90;;;;;;5025282;28;20050;-83
2022/10/31 12:24:39;;;;;;;21.90;9.20;;;15.50;99.90;;;;;;4997355;28;20053;-85
2022/10/31 12:27:31;;;;;;;11.88;8.05;;;15.50;99.90;;;;;;5030329;28;20468;-85
2022/10/31 12:30:02;;;;;;;16.63;7.88;;;15.50;99.90;;;;;;5013101;28;20179;-83
2022/10/31 12:32:48;;;;;;;13.32;7.18;;;16.00;99.90;;;;;;5030202;28;20051;-84
2022/10/31 12:35:43;;;;;;;16.95;7.28;;;15.60;99.90;;;;;;5029333;28;20045;-88
2022/10/31 12:38:30;;;;;;;17.38;7.50;;;15.60;99.90;;;;;;4992283;28;20045;-88
2022/10/31 12:41:08;;;;;;;12.63;6.75;;;15.60;99.90;;;;;;5016856;28;20053;-88
2022/10/31 12:44:04;;;;;;;17.83;6.67;;;15.60;99.90;;;;;;5024980;28;20045;-86
2022/10/31 12:46:55;;;;;;;14.10;6.57;;;15.60;99.90;;;;;;5012951;28;20319;-89
2022/10/31 12:49:27;;;;;;;10.10;5.93;;;15.00;99.90;;;;;;5018776;28;20124;-82
2022/10/31 12:52:31;;;;;;;16.75;6.72;;;15.80;99.90;;;;;;5021164;28;20053;-85